sensor_id;sensor_type;location;lat;lon;timestamp;temperature;humidity
3850;DHT22;1940;51.052;13.678;2023-01-10T00:00:30;6.70;85.50
3850;DHT22;1940;51.052;13.678;2023-01-10T00:03:00;6.70;85.10
3850;DHT22;1940;51.052;13.678;2023-01-10T00:05:25;6.70;85.10
3850;DHT22;1940;51.052;13.678;2023-01-10T00:07:51;6.70;84.90
3850;DHT22;1940;51.052;13.678;2023-01-10T00:10:16;6.70;85.00
3850;DHT22;1940;51.052;13.678;2023-01-10T00:12:42;6.80;84.90
3850;DHT22;1940;51.052;13.678;2023-01-10T00:15:26;6.80;84.70
3850;DHT22;1940;51.052;13.678;2023-01-10T00:17:51;6.80;84.60
3850;DHT22;1940;51.052;13.678;2023-01-10T00:20:18;6.90;84.70
3850;DHT22;1940;51.052;13.678;2023-01-10T00:22:43;6.90;84.30
3850;DHT22;1940;51.052;13.678;2023-01-10T00:25:13;6.90;84.60
3850;DHT22;1940;51.052;13.678;2023-01-10T00:27:39;6.90;84.40
3850;DHT22;1940;51.052;13.678;2023-01-10T00:30:05;6.90;84.40
3850;DHT22;1940;51.052;13.678;2023-01-10T00:32:39;6.90;84.20
3850;DHT22;1940;51.052;13.678;2023-01-10T00:35:05;6.90;84.50
3850;DHT22;1940;51.052;13.678;2023-01-10T00:37:31;6.90;84.20
3850;DHT22;1940;51.052;13.678;2023-01-10T00:39:56;6.90;84.30
3850;DHT22;1940;51.052;13.678;2023-01-10T00:42:23;6.80;84.60
3850;DHT22;1940;51.052;13.678;2023-01-10T00:45:08;6.90;84.50
3850;DHT22;1940;51.052;13.678;2023-01-10T00:47:33;6.90;84.30
3850;DHT22;1940;51.052;13.678;2023-01-10T00:49:59;6.90;84.40
3850;DHT22;1940;51.052;13.678;2023-01-10T00:52:24;6.90;84.30
3850;DHT22;1940;51.052;13.678;2023-01-10T00:54:50;7.00;84.30
3850;DHT22;1940;51.052;13.678;2023-01-10T00:57:15;7.00;84.20
3850;DHT22;1940;51.052;13.678;2023-01-10T00:59:41;7.00;84.20
3850;DHT22;1940;51.052;13.678;2023-01-10T01:02:06;6.90;84.10
3850;DHT22;1940;51.052;13.678;2023-01-10T01:04:32;7.00;84.10
3850;DHT22;1940;51.052;13.678;2023-01-10T01:07:00;6.90;84.20
3850;DHT22;1940;51.052;13.678;2023-01-10T01:09:27;6.90;84.30
3850;DHT22;1940;51.052;13.678;2023-01-10T01:11:52;6.90;84.60
3850;DHT22;1940;51.052;13.678;2023-01-10T01:14:21;6.90;84.50
3850;DHT22;1940;51.052;13.678;2023-01-10T01:16:46;6.90;84.70
3850;DHT22;1940;51.052;13.678;2023-01-10T01:19:11;6.90;84.50
3850;DHT22;1940;51.052;13.678;2023-01-10T01:21:37;7.00;84.30
3850;DHT22;1940;51.052;13.678;2023-01-10T01:24:03;7.00;84.30
3850;DHT22;1940;51.052;13.678;2023-01-10T01:26:28;6.80;84.50
3850;DHT22;1940;51.052;13.678;2023-01-10T01:28:53;6.80;84.70
3850;DHT22;1940;51.052;13.678;2023-01-10T01:31:19;6.80;84.80
3850;DHT22;1940;51.052;13.678;2023-01-10T01:33:45;6.80;84.60
3850;DHT22;1940;51.052;13.678;2023-01-10T01:36:11;6.90;84.50
3850;DHT22;1940;51.052;13.678;2023-01-10T01:38:38;6.90;84.60
3850;DHT22;1940;51.052;13.678;2023-01-10T01:41:04;6.80;84.80
3850;DHT22;1940;51.052;13.678;2023-01-10T01:44:09;6.80;84.70
3850;DHT22;1940;51.052;13.678;2023-01-10T01:46:39;6.70;85.10
3850;DHT22;1940;51.052;13.678;2023-01-10T01:49:13;6.70;85.20
3850;DHT22;1940;51.052;13.678;2023-01-10T01:51:40;6.60;85.50
3850;DHT22;1940;51.052;13.678;2023-01-10T01:54:11;6.60;85.70
3850;DHT22;1940;51.052;13.678;2023-01-10T01:56:41;6.60;85.70
3850;DHT22;1940;51.052;13.678;2023-01-10T01:59:22;6.60;85.60
3850;DHT22;1940;51.052;13.678;2023-01-10T02:01:52;6.60;86.00
3850;DHT22;1940;51.052;13.678;2023-01-10T02:04:25;6.60;86.00
3850;DHT22;1940;51.052;13.678;2023-01-10T02:06:54;6.60;85.70
3850;DHT22;1940;51.052;13.678;2023-01-10T02:12:15;6.60;86.00
3850;DHT22;1940;51.052;13.678;2023-01-10T02:14:42;6.60;86.10
3850;DHT22;1940;51.052;13.678;2023-01-10T02:17:11;6.50;86.10
3850;DHT22;1940;51.052;13.678;2023-01-10T02:19:53;6.50;86.20
3850;DHT22;1940;51.052;13.678;2023-01-10T02:22:50;6.50;86.50
3850;DHT22;1940;51.052;13.678;2023-01-10T02:26:13;6.40;86.50
3850;DHT22;1940;51.052;13.678;2023-01-10T02:33:47;6.40;86.70
3850;DHT22;1940;51.052;13.678;2023-01-10T02:39:23;6.40;87.40
3850;DHT22;1940;51.052;13.678;2023-01-10T02:47:03;6.40;87.30
3850;DHT22;1940;51.052;13.678;2023-01-10T02:49:29;6.40;87.30
3850;DHT22;1940;51.052;13.678;2023-01-10T02:51:55;6.40;87.40
3850;DHT22;1940;51.052;13.678;2023-01-10T02:54:25;6.30;88.10
3850;DHT22;1940;51.052;13.678;2023-01-10T03:00:02;6.40;88.10
3850;DHT22;1940;51.052;13.678;2023-01-10T03:08:00;6.40;88.70
3850;DHT22;1940;51.052;13.678;2023-01-10T03:10:42;6.30;88.90
3850;DHT22;1940;51.052;13.678;2023-01-10T03:13:17;6.40;88.90
3850;DHT22;1940;51.052;13.678;2023-01-10T03:15:45;6.40;88.80
3850;DHT22;1940;51.052;13.678;2023-01-10T03:18:18;6.30;89.40
3850;DHT22;1940;51.052;13.678;2023-01-10T03:20:47;6.40;89.30
3850;DHT22;1940;51.052;13.678;2023-01-10T03:23:14;6.30;89.10
3850;DHT22;1940;51.052;13.678;2023-01-10T03:25:42;6.30;89.60
3850;DHT22;1940;51.052;13.678;2023-01-10T03:28:16;6.20;89.60
3850;DHT22;1940;51.052;13.678;2023-01-10T03:30:53;6.20;89.70
3850;DHT22;1940;51.052;13.678;2023-01-10T03:33:28;6.20;89.70
3850;DHT22;1940;51.052;13.678;2023-01-10T03:36:12;6.20;89.60
3850;DHT22;1940;51.052;13.678;2023-01-10T03:38:59;6.30;89.60
3850;DHT22;1940;51.052;13.678;2023-01-10T03:41:39;6.30;89.40
3850;DHT22;1940;51.052;13.678;2023-01-10T03:44:19;6.40;88.70
3850;DHT22;1940;51.052;13.678;2023-01-10T03:47:11;6.40;88.90
3850;DHT22;1940;51.052;13.678;2023-01-10T03:49:42;6.40;88.60
3850;DHT22;1940;51.052;13.678;2023-01-10T03:52:12;6.40;88.50
3850;DHT22;1940;51.052;13.678;2023-01-10T03:54:41;6.30;88.50
3850;DHT22;1940;51.052;13.678;2023-01-10T03:57:15;6.30;89.00
3850;DHT22;1940;51.052;13.678;2023-01-10T03:59:41;6.30;88.80
3850;DHT22;1940;51.052;13.678;2023-01-10T04:02:06;6.30;88.60
3850;DHT22;1940;51.052;13.678;2023-01-10T04:04:32;6.30;88.80
3850;DHT22;1940;51.052;13.678;2023-01-10T04:06:57;6.30;88.40
3850;DHT22;1940;51.052;13.678;2023-01-10T04:09:23;6.20;88.40
3850;DHT22;1940;51.052;13.678;2023-01-10T04:11:48;6.30;88.20
3850;DHT22;1940;51.052;13.678;2023-01-10T04:14:14;6.30;88.00
3850;DHT22;1940;51.052;13.678;2023-01-10T04:26:47;6.30;88.20
3850;DHT22;1940;51.052;13.678;2023-01-10T04:45:54;6.30;88.10
3850;DHT22;1940;51.052;13.678;2023-01-10T04:48:19;6.30;88.30
3850;DHT22;1940;51.052;13.678;2023-01-10T04:50:49;6.30;88.40
3850;DHT22;1940;51.052;13.678;2023-01-10T04:53:15;6.40;88.10
3850;DHT22;1940;51.052;13.678;2023-01-10T04:55:40;6.40;88.10
3850;DHT22;1940;51.052;13.678;2023-01-10T04:58:06;6.40;87.90
3850;DHT22;1940;51.052;13.678;2023-01-10T05:00:32;6.40;88.20
3850;DHT22;1940;51.052;13.678;2023-01-10T05:02:57;6.40;88.10
3850;DHT22;1940;51.052;13.678;2023-01-10T05:05:23;6.40;87.80
3850;DHT22;1940;51.052;13.678;2023-01-10T05:07:49;6.40;88.20
3850;DHT22;1940;51.052;13.678;2023-01-10T05:10:15;6.40;88.20
3850;DHT22;1940;51.052;13.678;2023-01-10T05:12:40;6.40;88.10
3850;DHT22;1940;51.052;13.678;2023-01-10T05:15:06;6.50;87.90
3850;DHT22;1940;51.052;13.678;2023-01-10T05:17:32;6.50;87.80
3850;DHT22;1940;51.052;13.678;2023-01-10T05:19:57;6.40;87.90
3850;DHT22;1940;51.052;13.678;2023-01-10T05:22:23;6.40;87.90
3850;DHT22;1940;51.052;13.678;2023-01-10T05:24:48;6.50;87.80
3850;DHT22;1940;51.052;13.678;2023-01-10T05:27:14;6.40;87.70
3850;DHT22;1940;51.052;13.678;2023-01-10T05:29:40;6.40;87.90
3850;DHT22;1940;51.052;13.678;2023-01-10T05:32:06;6.40;87.80
3850;DHT22;1940;51.052;13.678;2023-01-10T05:34:31;6.40;87.90
3850;DHT22;1940;51.052;13.678;2023-01-10T05:36:57;6.40;88.10
3850;DHT22;1940;51.052;13.678;2023-01-10T05:39:22;6.40;88.00
3850;DHT22;1940;51.052;13.678;2023-01-10T05:41:48;6.40;87.90
3850;DHT22;1940;51.052;13.678;2023-01-10T05:44:13;6.40;87.70
3850;DHT22;1940;51.052;13.678;2023-01-10T05:46:39;6.40;87.70
3850;DHT22;1940;51.052;13.678;2023-01-10T05:49:05;6.40;87.90
3850;DHT22;1940;51.052;13.678;2023-01-10T05:51:30;6.40;88.10
3850;DHT22;1940;51.052;13.678;2023-01-10T05:53:55;6.40;88.10
3850;DHT22;1940;51.052;13.678;2023-01-10T05:56:23;6.40;88.10
3850;DHT22;1940;51.052;13.678;2023-01-10T05:58:49;6.30;88.50
3850;DHT22;1940;51.052;13.678;2023-01-10T06:01:14;6.30;88.30
3850;DHT22;1940;51.052;13.678;2023-01-10T06:03:40;6.40;88.20
3850;DHT22;1940;51.052;13.678;2023-01-10T06:06:05;6.40;88.20
3850;DHT22;1940;51.052;13.678;2023-01-10T06:08:31;6.40;88.00
3850;DHT22;1940;51.052;13.678;2023-01-10T06:10:57;6.40;87.90
3850;DHT22;1940;51.052;13.678;2023-01-10T06:13:22;6.40;88.00
3850;DHT22;1940;51.052;13.678;2023-01-10T06:15:49;6.40;87.90
3850;DHT22;1940;51.052;13.678;2023-01-10T06:18:15;6.50;87.90
3850;DHT22;1940;51.052;13.678;2023-01-10T06:20:41;6.50;87.80
3850;DHT22;1940;51.052;13.678;2023-01-10T06:23:07;6.50;87.50
3850;DHT22;1940;51.052;13.678;2023-01-10T06:25:35;6.40;87.70
3850;DHT22;1940;51.052;13.678;2023-01-10T06:28:02;6.40;87.90
3850;DHT22;1940;51.052;13.678;2023-01-10T06:30:28;6.40;87.80
3850;DHT22;1940;51.052;13.678;2023-01-10T06:32:53;6.40;88.10
3850;DHT22;1940;51.052;13.678;2023-01-10T06:35:24;6.40;88.30
3850;DHT22;1940;51.052;13.678;2023-01-10T06:37:49;6.30;88.10
3850;DHT22;1940;51.052;13.678;2023-01-10T06:40:15;6.40;88.40
3850;DHT22;1940;51.052;13.678;2023-01-10T06:42:40;6.30;88.20
3850;DHT22;1940;51.052;13.678;2023-01-10T06:45:06;6.30;88.20
3850;DHT22;1940;51.052;13.678;2023-01-10T06:47:32;6.30;88.00
3850;DHT22;1940;51.052;13.678;2023-01-10T06:49:59;6.30;88.10
3850;DHT22;1940;51.052;13.678;2023-01-10T06:52:24;6.30;88.30
3850;DHT22;1940;51.052;13.678;2023-01-10T06:54:49;6.30;88.30
3850;DHT22;1940;51.052;13.678;2023-01-10T06:57:17;6.30;88.60
3850;DHT22;1940;51.052;13.678;2023-01-10T06:59:43;6.10;89.10
3850;DHT22;1940;51.052;13.678;2023-01-10T07:02:10;6.10;89.40
3850;DHT22;1940;51.052;13.678;2023-01-10T07:04:36;6.10;89.60
3850;DHT22;1940;51.052;13.678;2023-01-10T07:07:01;6.20;89.50
3850;DHT22;1940;51.052;13.678;2023-01-10T07:09:27;6.20;89.40
3850;DHT22;1940;51.052;13.678;2023-01-10T07:11:53;6.20;89.70
3850;DHT22;1940;51.052;13.678;2023-01-10T07:14:18;6.10;89.90
3850;DHT22;1940;51.052;13.678;2023-01-10T07:16:44;6.10;90.10
3850;DHT22;1940;51.052;13.678;2023-01-10T07:19:09;6.10;90.30
3850;DHT22;1940;51.052;13.678;2023-01-10T07:21:38;6.10;90.40
3850;DHT22;1940;51.052;13.678;2023-01-10T07:24:03;6.10;90.40
3850;DHT22;1940;51.052;13.678;2023-01-10T07:26:29;6.20;90.20
3850;DHT22;1940;51.052;13.678;2023-01-10T07:28:54;6.10;90.10
3850;DHT22;1940;51.052;13.678;2023-01-10T07:31:20;6.20;90.20
3850;DHT22;1940;51.052;13.678;2023-01-10T07:33:48;6.20;90.20
3850;DHT22;1940;51.052;13.678;2023-01-10T07:36:14;6.10;90.00
3850;DHT22;1940;51.052;13.678;2023-01-10T07:38:40;6.10;90.20
3850;DHT22;1940;51.052;13.678;2023-01-10T07:41:06;6.20;89.90
3850;DHT22;1940;51.052;13.678;2023-01-10T07:43:32;6.10;90.30
3850;DHT22;1940;51.052;13.678;2023-01-10T07:45:58;6.10;90.50
3850;DHT22;1940;51.052;13.678;2023-01-10T07:48:24;6.10;91.10
3850;DHT22;1940;51.052;13.678;2023-01-10T07:50:54;6.10;91.50
3850;DHT22;1940;51.052;13.678;2023-01-10T07:53:20;6.10;91.70
3850;DHT22;1940;51.052;13.678;2023-01-10T07:55:45;6.10;91.30
3850;DHT22;1940;51.052;13.678;2023-01-10T07:58:11;6.10;91.20
3850;DHT22;1940;51.052;13.678;2023-01-10T08:00:37;6.00;91.10
3850;DHT22;1940;51.052;13.678;2023-01-10T08:03:02;6.00;91.50
3850;DHT22;1940;51.052;13.678;2023-01-10T08:05:28;6.10;91.30
3850;DHT22;1940;51.052;13.678;2023-01-10T08:07:53;6.20;90.70
3850;DHT22;1940;51.052;13.678;2023-01-10T08:10:24;6.10;90.80
3850;DHT22;1940;51.052;13.678;2023-01-10T08:12:50;6.10;90.70
3850;DHT22;1940;51.052;13.678;2023-01-10T08:15:15;6.10;90.90
3850;DHT22;1940;51.052;13.678;2023-01-10T08:17:41;6.10;91.30
3850;DHT22;1940;51.052;13.678;2023-01-10T08:20:08;6.10;91.40
3850;DHT22;1940;51.052;13.678;2023-01-10T08:22:34;6.10;91.80
3850;DHT22;1940;51.052;13.678;2023-01-10T08:24:59;6.10;92.20
3850;DHT22;1940;51.052;13.678;2023-01-10T08:27:25;6.10;91.90
3850;DHT22;1940;51.052;13.678;2023-01-10T08:29:50;6.20;91.60
3850;DHT22;1940;51.052;13.678;2023-01-10T08:32:15;6.10;91.70
3850;DHT22;1940;51.052;13.678;2023-01-10T08:34:41;6.10;91.60
3850;DHT22;1940;51.052;13.678;2023-01-10T08:37:09;6.20;91.10
3850;DHT22;1940;51.052;13.678;2023-01-10T08:39:35;6.20;90.80
3850;DHT22;1940;51.052;13.678;2023-01-10T08:42:03;6.10;91.20
3850;DHT22;1940;51.052;13.678;2023-01-10T08:44:28;6.20;90.90
3850;DHT22;1940;51.052;13.678;2023-01-10T08:46:54;6.30;91.10
3850;DHT22;1940;51.052;13.678;2023-01-10T08:49:21;6.50;90.80
3850;DHT22;1940;51.052;13.678;2023-01-10T08:51:47;6.90;89.40
3850;DHT22;1940;51.052;13.678;2023-01-10T08:54:14;7.60;87.50
3850;DHT22;1940;51.052;13.678;2023-01-10T08:56:40;8.20;84.20
3850;DHT22;1940;51.052;13.678;2023-01-10T08:59:06;8.50;82.80
3850;DHT22;1940;51.052;13.678;2023-01-10T09:01:32;8.50;82.10
3850;DHT22;1940;51.052;13.678;2023-01-10T09:03:58;8.80;81.10
3850;DHT22;1940;51.052;13.678;2023-01-10T09:06:24;9.60;79.90
3850;DHT22;1940;51.052;13.678;2023-01-10T09:08:49;10.00;77.80
3850;DHT22;1940;51.052;13.678;2023-01-10T09:11:15;10.80;76.70
3850;DHT22;1940;51.052;13.678;2023-01-10T09:13:41;11.30;74.10
3850;DHT22;1940;51.052;13.678;2023-01-10T09:16:06;11.50;73.80
3850;DHT22;1940;51.052;13.678;2023-01-10T09:18:32;11.40;73.30
3850;DHT22;1940;51.052;13.678;2023-01-10T09:20:58;11.40;73.30
3850;DHT22;1940;51.052;13.678;2023-01-10T09:23:24;11.10;74.40
3850;DHT22;1940;51.052;13.678;2023-01-10T09:25:52;10.60;75.60
3850;DHT22;1940;51.052;13.678;2023-01-10T09:28:18;10.40;77.00
3850;DHT22;1940;51.052;13.678;2023-01-10T09:30:44;9.90;78.80
3850;DHT22;1940;51.052;13.678;2023-01-10T09:33:11;9.10;80.60
3850;DHT22;1940;51.052;13.678;2023-01-10T09:35:39;8.40;82.80
3850;DHT22;1940;51.052;13.678;2023-01-10T09:38:06;8.10;84.10
3850;DHT22;1940;51.052;13.678;2023-01-10T09:40:56;7.80;85.70
3850;DHT22;1940;51.052;13.678;2023-01-10T09:46:15;7.30;87.70
3850;DHT22;1940;51.052;13.678;2023-01-10T09:49:03;7.20;88.00
3850;DHT22;1940;51.052;13.678;2023-01-10T09:51:49;7.20;88.90
3850;DHT22;1940;51.052;13.678;2023-01-10T09:54:28;7.20;89.20
3850;DHT22;1940;51.052;13.678;2023-01-10T09:56:54;7.10;89.70
3850;DHT22;1940;51.052;13.678;2023-01-10T09:59:24;7.10;89.80
3850;DHT22;1940;51.052;13.678;2023-01-10T10:01:58;7.20;89.90
3850;DHT22;1940;51.052;13.678;2023-01-10T10:04:34;7.30;89.00
3850;DHT22;1940;51.052;13.678;2023-01-10T10:07:01;7.30;89.00
3850;DHT22;1940;51.052;13.678;2023-01-10T10:09:32;7.20;88.80
3850;DHT22;1940;51.052;13.678;2023-01-10T10:12:25;7.10;89.00
3850;DHT22;1940;51.052;13.678;2023-01-10T10:15:09;7.10;89.30
3850;DHT22;1940;51.052;13.678;2023-01-10T10:17:59;7.10;88.90
3850;DHT22;1940;51.052;13.678;2023-01-10T10:20:50;7.10;89.10
3850;DHT22;1940;51.052;13.678;2023-01-10T10:23:28;7.20;89.00
3850;DHT22;1940;51.052;13.678;2023-01-10T10:29:27;7.20;88.40
3850;DHT22;1940;51.052;13.678;2023-01-10T10:34:54;7.20;88.80
3850;DHT22;1940;51.052;13.678;2023-01-10T10:37:47;7.30;87.80
3850;DHT22;1940;51.052;13.678;2023-01-10T10:40:21;7.40;87.20
3850;DHT22;1940;51.052;13.678;2023-01-10T10:42:55;7.40;87.00
3850;DHT22;1940;51.052;13.678;2023-01-10T10:45:28;7.50;86.70
3850;DHT22;1940;51.052;13.678;2023-01-10T10:48:06;7.40;85.50
3850;DHT22;1940;51.052;13.678;2023-01-10T10:50:57;7.50;85.30
3850;DHT22;1940;51.052;13.678;2023-01-10T10:53:24;7.60;84.90
3850;DHT22;1940;51.052;13.678;2023-01-10T10:55:50;7.70;85.00
3850;DHT22;1940;51.052;13.678;2023-01-10T10:58:17;7.80;85.00
3850;DHT22;1940;51.052;13.678;2023-01-10T11:00:42;7.70;84.50
3850;DHT22;1940;51.052;13.678;2023-01-10T11:05:52;7.60;85.30
3850;DHT22;1940;51.052;13.678;2023-01-10T11:08:19;7.60;85.30
3850;DHT22;1940;51.052;13.678;2023-01-10T11:10:51;7.50;85.30
3850;DHT22;1940;51.052;13.678;2023-01-10T11:13:34;7.50;85.40
3850;DHT22;1940;51.052;13.678;2023-01-10T11:16:05;7.50;84.80
3850;DHT22;1940;51.052;13.678;2023-01-10T11:18:31;7.60;85.00
3850;DHT22;1940;51.052;13.678;2023-01-10T11:21:07;7.60;84.70
3850;DHT22;1940;51.052;13.678;2023-01-10T11:23:51;7.70;84.60
3850;DHT22;1940;51.052;13.678;2023-01-10T11:26:26;7.70;84.60
3850;DHT22;1940;51.052;13.678;2023-01-10T11:29:24;7.70;84.70
3850;DHT22;1940;51.052;13.678;2023-01-10T11:31:48;7.80;84.40
3850;DHT22;1940;51.052;13.678;2023-01-10T11:34:21;7.80;83.90
3850;DHT22;1940;51.052;13.678;2023-01-10T11:36:58;7.90;84.40
3850;DHT22;1940;51.052;13.678;2023-01-10T11:39:25;8.00;84.30
3850;DHT22;1940;51.052;13.678;2023-01-10T11:41:51;8.00;83.50
3850;DHT22;1940;51.052;13.678;2023-01-10T11:44:24;8.10;82.90
3850;DHT22;1940;51.052;13.678;2023-01-10T11:46:56;8.30;82.50
3850;DHT22;1940;51.052;13.678;2023-01-10T11:49:29;8.50;81.40
3850;DHT22;1940;51.052;13.678;2023-01-10T11:51:59;8.80;81.10
3850;DHT22;1940;51.052;13.678;2023-01-10T11:54:27;9.00;79.30
3850;DHT22;1940;51.052;13.678;2023-01-10T11:57:17;9.50;78.40
3850;DHT22;1940;51.052;13.678;2023-01-10T12:00:06;9.70;76.70
3850;DHT22;1940;51.052;13.678;2023-01-10T12:02:35;9.60;77.10
3850;DHT22;1940;51.052;13.678;2023-01-10T12:05:04;9.40;76.80
3850;DHT22;1940;51.052;13.678;2023-01-10T12:07:57;9.40;77.20
3850;DHT22;1940;51.052;13.678;2023-01-10T12:10:25;9.40;77.30
3850;DHT22;1940;51.052;13.678;2023-01-10T12:12:55;9.50;77.00
3850;DHT22;1940;51.052;13.678;2023-01-10T12:15:28;9.40;77.20
3850;DHT22;1940;51.052;13.678;2023-01-10T12:18:02;9.40;77.20
3850;DHT22;1940;51.052;13.678;2023-01-10T12:20:31;9.30;77.70
3850;DHT22;1940;51.052;13.678;2023-01-10T12:22:59;9.10;77.10
3850;DHT22;1940;51.052;13.678;2023-01-10T12:25:37;8.90;77.50
3850;DHT22;1940;51.052;13.678;2023-01-10T12:28:03;8.70;78.20
3850;DHT22;1940;51.052;13.678;2023-01-10T12:30:36;8.60;78.50
3850;DHT22;1940;51.052;13.678;2023-01-10T12:33:08;8.50;78.50
3850;DHT22;1940;51.052;13.678;2023-01-10T12:41:03;8.10;80.20
3850;DHT22;1940;51.052;13.678;2023-01-10T12:43:39;8.10;80.10
3850;DHT22;1940;51.052;13.678;2023-01-10T12:46:44;8.20;80.20
3850;DHT22;1940;51.052;13.678;2023-01-10T12:51:45;8.20;80.20
3850;DHT22;1940;51.052;13.678;2023-01-10T12:54:15;8.30;79.40
3850;DHT22;1940;51.052;13.678;2023-01-10T12:56:42;8.40;79.10
3850;DHT22;1940;51.052;13.678;2023-01-10T12:59:34;8.40;77.90
3850;DHT22;1940;51.052;13.678;2023-01-10T13:02:05;8.50;77.90
3850;DHT22;1940;51.052;13.678;2023-01-10T13:04:33;8.40;78.90
3850;DHT22;1940;51.052;13.678;2023-01-10T13:07:00;8.50;77.20
3850;DHT22;1940;51.052;13.678;2023-01-10T13:09:27;8.30;77.90
3850;DHT22;1940;51.052;13.678;2023-01-10T13:12:00;8.30;77.60
3850;DHT22;1940;51.052;13.678;2023-01-10T13:14:37;8.40;77.50
3850;DHT22;1940;51.052;13.678;2023-01-10T13:22:44;8.60;77.00
3850;DHT22;1940;51.052;13.678;2023-01-10T13:25:32;8.50;76.10
3850;DHT22;1940;51.052;13.678;2023-01-10T13:28:28;8.30;76.50
3850;DHT22;1940;51.052;13.678;2023-01-10T13:31:06;8.30;76.20
3850;DHT22;1940;51.052;13.678;2023-01-10T13:34:06;8.30;77.00
3850;DHT22;1940;51.052;13.678;2023-01-10T13:36:47;8.30;77.10
3850;DHT22;1940;51.052;13.678;2023-01-10T13:39:22;8.20;77.30
3850;DHT22;1940;51.052;13.678;2023-01-10T13:52:51;8.00;77.80
3850;DHT22;1940;51.052;13.678;2023-01-10T14:06:17;7.90;78.40
3850;DHT22;1940;51.052;13.678;2023-01-10T14:08:52;8.00;78.60
3850;DHT22;1940;51.052;13.678;2023-01-10T14:12:06;8.00;77.70
3850;DHT22;1940;51.052;13.678;2023-01-10T14:14:25;7.80;78.30
3850;DHT22;1940;51.052;13.678;2023-01-10T14:16:56;7.80;78.50
3850;DHT22;1940;51.052;13.678;2023-01-10T14:19:28;7.90;78.50
3850;DHT22;1940;51.052;13.678;2023-01-10T14:21:57;7.90;78.70
3850;DHT22;1940;51.052;13.678;2023-01-10T14:27:01;8.10;78.00
3850;DHT22;1940;51.052;13.678;2023-01-10T14:29:30;8.00;78.20
3850;DHT22;1940;51.052;13.678;2023-01-10T14:31:58;8.00;77.80
3850;DHT22;1940;51.052;13.678;2023-01-10T14:34:29;8.10;77.60
3850;DHT22;1940;51.052;13.678;2023-01-10T14:37:23;8.10;77.90
3850;DHT22;1940;51.052;13.678;2023-01-10T14:39:52;8.10;77.60
3850;DHT22;1940;51.052;13.678;2023-01-10T14:42:20;8.10;77.00
3850;DHT22;1940;51.052;13.678;2023-01-10T14:47:32;8.00;77.50
3850;DHT22;1940;51.052;13.678;2023-01-10T14:49:58;8.00;77.60
3850;DHT22;1940;51.052;13.678;2023-01-10T14:52:26;8.00;77.40
3850;DHT22;1940;51.052;13.678;2023-01-10T14:55:14;8.00;77.20
3850;DHT22;1940;51.052;13.678;2023-01-10T14:57:56;8.00;77.50
3850;DHT22;1940;51.052;13.678;2023-01-10T15:00:33;7.80;77.90
3850;DHT22;1940;51.052;13.678;2023-01-10T15:03:01;7.80;77.80
3850;DHT22;1940;51.052;13.678;2023-01-10T15:05:30;7.80;78.00
3850;DHT22;1940;51.052;13.678;2023-01-10T15:10:46;7.70;77.60
3850;DHT22;1940;51.052;13.678;2023-01-10T15:13:14;7.60;77.90
3850;DHT22;1940;51.052;13.678;2023-01-10T15:15:41;7.60;78.10
3850;DHT22;1940;51.052;13.678;2023-01-10T15:20:54;7.50;77.50
3850;DHT22;1940;51.052;13.678;2023-01-10T15:23:20;7.50;77.70
3850;DHT22;1940;51.052;13.678;2023-01-10T15:25:57;7.50;77.50
3850;DHT22;1940;51.052;13.678;2023-01-10T15:28:26;7.40;77.80
3850;DHT22;1940;51.052;13.678;2023-01-10T15:30:54;7.50;77.50
3850;DHT22;1940;51.052;13.678;2023-01-10T15:33:28;7.50;77.60
3850;DHT22;1940;51.052;13.678;2023-01-10T15:36:06;7.60;77.50
3850;DHT22;1940;51.052;13.678;2023-01-10T15:38:34;7.50;77.60
3850;DHT22;1940;51.052;13.678;2023-01-10T15:41:04;7.50;77.50
3850;DHT22;1940;51.052;13.678;2023-01-10T15:43:33;7.50;77.40
3850;DHT22;1940;51.052;13.678;2023-01-10T15:46:01;7.50;77.40
3850;DHT22;1940;51.052;13.678;2023-01-10T15:48:40;7.50;77.50
3850;DHT22;1940;51.052;13.678;2023-01-10T15:51:19;7.40;77.70
3850;DHT22;1940;51.052;13.678;2023-01-10T15:56:47;7.40;77.90
3850;DHT22;1940;51.052;13.678;2023-01-10T15:59:31;7.40;78.00
3850;DHT22;1940;51.052;13.678;2023-01-10T16:02:18;7.40;78.10
3850;DHT22;1940;51.052;13.678;2023-01-10T16:04:47;7.40;78.10
3850;DHT22;1940;51.052;13.678;2023-01-10T16:07:31;7.30;78.10
3850;DHT22;1940;51.052;13.678;2023-01-10T16:10:05;7.30;78.50
3850;DHT22;1940;51.052;13.678;2023-01-10T16:12:38;7.30;78.50
3850;DHT22;1940;51.052;13.678;2023-01-10T16:15:26;7.30;78.50
3850;DHT22;1940;51.052;13.678;2023-01-10T16:17:53;7.30;78.90
3850;DHT22;1940;51.052;13.678;2023-01-10T16:20:37;7.30;78.70
3850;DHT22;1940;51.052;13.678;2023-01-10T16:23:05;7.30;78.50
3850;DHT22;1940;51.052;13.678;2023-01-10T16:25:37;7.20;78.40
3850;DHT22;1940;51.052;13.678;2023-01-10T16:28:14;7.20;78.70
3850;DHT22;1940;51.052;13.678;2023-01-10T16:30:41;7.10;78.70
3850;DHT22;1940;51.052;13.678;2023-01-10T16:33:18;7.20;78.70
3850;DHT22;1940;51.052;13.678;2023-01-10T16:35:49;7.10;78.60
3850;DHT22;1940;51.052;13.678;2023-01-10T16:38:16;7.10;78.70
3850;DHT22;1940;51.052;13.678;2023-01-10T16:40:47;7.10;78.70
3850;DHT22;1940;51.052;13.678;2023-01-10T16:43:14;7.10;78.50
3850;DHT22;1940;51.052;13.678;2023-01-10T16:45:43;7.10;78.60
3850;DHT22;1940;51.052;13.678;2023-01-10T16:48:09;7.10;78.60
3850;DHT22;1940;51.052;13.678;2023-01-10T16:50:34;7.10;78.70
3850;DHT22;1940;51.052;13.678;2023-01-10T16:53:00;7.10;78.40
3850;DHT22;1940;51.052;13.678;2023-01-10T16:55:39;7.10;78.30
3850;DHT22;1940;51.052;13.678;2023-01-10T16:58:06;7.10;78.40
3850;DHT22;1940;51.052;13.678;2023-01-10T17:00:32;7.10;78.30
3850;DHT22;1940;51.052;13.678;2023-01-10T17:02:59;7.10;78.30
3850;DHT22;1940;51.052;13.678;2023-01-10T17:05:26;7.20;78.40
3850;DHT22;1940;51.052;13.678;2023-01-10T17:07:51;7.10;78.10
3850;DHT22;1940;51.052;13.678;2023-01-10T17:10:17;7.10;78.40
3850;DHT22;1940;51.052;13.678;2023-01-10T17:12:42;7.10;78.30
3850;DHT22;1940;51.052;13.678;2023-01-10T17:15:12;7.10;78.30
3850;DHT22;1940;51.052;13.678;2023-01-10T17:17:39;7.00;78.50
3850;DHT22;1940;51.052;13.678;2023-01-10T17:20:12;7.10;78.40
3850;DHT22;1940;51.052;13.678;2023-01-10T17:22:38;7.10;78.40
3850;DHT22;1940;51.052;13.678;2023-01-10T17:25:04;7.00;78.50
3850;DHT22;1940;51.052;13.678;2023-01-10T17:27:30;7.00;78.50
3850;DHT22;1940;51.052;13.678;2023-01-10T17:29:55;7.00;78.60
3850;DHT22;1940;51.052;13.678;2023-01-10T17:32:21;7.00;78.80
3850;DHT22;1940;51.052;13.678;2023-01-10T17:34:46;7.00;78.80
3850;DHT22;1940;51.052;13.678;2023-01-10T17:37:12;7.00;78.80
3850;DHT22;1940;51.052;13.678;2023-01-10T17:39:37;7.00;78.80
3850;DHT22;1940;51.052;13.678;2023-01-10T17:42:04;7.00;78.80
3850;DHT22;1940;51.052;13.678;2023-01-10T17:44:30;7.00;78.60
3850;DHT22;1940;51.052;13.678;2023-01-10T17:46:56;7.10;78.70
3850;DHT22;1940;51.052;13.678;2023-01-10T17:49:22;7.00;78.60
3850;DHT22;1940;51.052;13.678;2023-01-10T17:51:48;7.00;78.80
3850;DHT22;1940;51.052;13.678;2023-01-10T17:54:14;7.10;78.70
3850;DHT22;1940;51.052;13.678;2023-01-10T17:56:40;7.10;78.80
3850;DHT22;1940;51.052;13.678;2023-01-10T17:59:06;7.10;78.80
3850;DHT22;1940;51.052;13.678;2023-01-10T18:01:31;7.10;78.80
3850;DHT22;1940;51.052;13.678;2023-01-10T18:03:58;7.10;78.80
3850;DHT22;1940;51.052;13.678;2023-01-10T18:06:24;7.10;78.80
3850;DHT22;1940;51.052;13.678;2023-01-10T18:08:49;7.00;78.90
3850;DHT22;1940;51.052;13.678;2023-01-10T18:11:15;7.00;79.10
3850;DHT22;1940;51.052;13.678;2023-01-10T18:13:41;7.00;79.10